Time;durP1;ratioP1;P1;durP2;ratioP2;P2;SDS_P1;SDS_P2;PMS_P1;PMS_P2;Temp;Humidity;BMP_temperature;BMP_pressure;BME280_temperature;BME280_humidity;BME280_pressure;Samples;Min_cycle;Max_cycle;Signal;HPM_P1;HPM_P2
2024/02/15 00:00:34;;;;;;;;;;;;;;;3.96;71.98;101879.89;107588;1254;108263;-64
2024/02/15 00:03:22;;;;;;;;;;;;;;;3.94;71.83;101878.25;107500;1251;99345;-65
2024/02/15 00:05:50;;;;;;;;;;;;;;;3.91;71.84;101877.80;107522;1254;99197;-65
2024/02/15 00:08:20;;;;;;;;;;;;;;;3.90;71.84;101879.27;107605;1253;112412;-65
2024/02/15 00:10:49;;;;;;;;;;;;;;;3.91;72.13;101883.50;107617;1254;108413;-64
2024/02/15 00:13:17;;;;;;;;;;;;;;;3.93;71.94;101881.09;107532;1251;108073;-63
2024/02/15 00:15:48;;;;;;;;;;;;;;;3.93;71.75;101880.75;107516;1253;99181;-65
2024/02/15 00:18:16;;;;;;;;;;;;;;;3.95;71.71;101883.34;107515;1251;99176;-63
2024/02/15 00:20:46;;;;;;;;;;;;;;;3.93;71.70;101883.06;107546;1251;112931;-64
2024/02/15 00:23:16;;;;;;;;;;;;;;;3.94;71.80;101880.35;107623;1251;108662;-65
2024/02/15 00:25:45;;;;;;;;;;;;;;;3.93;71.62;101883.59;107563;1251;108693;-65
2024/02/15 00:28:13;;;;;;;;;;;;;;;3.93;71.93;101885.38;107543;1251;99294;-65
2024/02/15 00:30:42;;;;;;;;;;;;;;;3.95;72.05;101885.47;107528;1250;101056;-65
2024/02/15 00:33:10;;;;;;;;;;;;;;;3.93;72.01;101878.09;107576;1251;113044;-64
2024/02/15 00:35:39;;;;;;;;;;;;;;;3.91;71.92;101880.30;107619;1251;109652;-64
2024/02/15 00:38:08;;;;;;;;;;;;;;;3.90;72.14;101877.83;107562;1251;107835;-64
2024/02/15 00:40:37;;;;;;;;;;;;;;;3.92;72.32;101877.79;107585;1251;99188;-64
2024/02/15 00:43:05;;;;;;;;;;;;;;;3.93;72.15;101875.80;107619;1251;99061;-64
2024/02/15 00:45:33;;;;;;;;;;;;;;;3.94;72.02;101869.20;107566;1251;113074;-64
2024/02/15 00:48:01;;;;;;;;;;;;;;;3.98;72.22;101861.02;107572;1254;107209;-63
2024/02/15 00:50:30;;;;;;;;;;;;;;;4.00;72.00;101862.87;107559;1251;107825;-65
2024/02/15 00:52:58;;;;;;;;;;;;;;;3.95;71.49;101860.79;107531;1254;99031;-66
2024/02/15 00:55:26;;;;;;;;;;;;;;;3.87;71.41;101856.68;107607;1254;99093;-66
2024/02/15 00:57:55;;;;;;;;;;;;;;;3.83;71.58;101855.45;107593;1251;111241;-64
2024/02/15 01:00:23;;;;;;;;;;;;;;;3.84;71.81;101854.88;107624;1251;107542;-64
2024/02/15 01:02:52;;;;;;;;;;;;;;;3.85;71.73;101857.13;107545;1254;107471;-67
2024/02/15 01:05:21;;;;;;;;;;;;;;;3.76;71.50;101850.94;107559;1251;99173;-65
2024/02/15 01:07:50;;;;;;;;;;;;;;;3.72;71.67;101853.05;107573;1251;99096;-64
2024/02/15 01:10:18;;;;;;;;;;;;;;;3.67;71.66;101850.61;107527;1251;111513;-63
2024/02/15 01:12:46;;;;;;;;;;;;;;;3.60;71.86;101850.89;107538;1251;109916;-64
2024/02/15 01:15:18;;;;;;;;;;;;;;;3.53;72.04;101853.84;107549;1251;107475;-64
2024/02/15 01:17:46;;;;;;;;;;;;;;;3.48;72.06;101852.13;107555;1254;99170;-64
2024/02/15 01:20:15;;;;;;;;;;;;;;;3.45;72.38;101859.87;107504;1253;99255;-63
2024/02/15 01:22:44;;;;;;;;;;;;;;;3.43;72.47;101859.40;107666;1253;112191;-64
2024/02/15 01:25:12;;;;;;;;;;;;;;;3.41;72.79;101858.23;107585;1251;108421;-64
2024/02/15 01:27:41;;;;;;;;;;;;;;;3.40;72.79;101853.30;107513;1251;107447;-65
2024/02/15 01:30:10;;;;;;;;;;;;;;;3.39;72.86;101852.31;107548;1251;99183;-65
2024/02/15 01:32:41;;;;;;;;;;;;;;;3.42;73.03;101852.17;107602;1254;99153;-63
2024/02/15 01:35:11;;;;;;;;;;;;;;;3.48;72.84;101853.02;107540;1250;112812;-64
2024/02/15 01:37:39;;;;;;;;;;;;;;;3.54;72.86;101854.17;107575;1251;108443;-64
2024/02/15 01:40:09;;;;;;;;;;;;;;;3.57;72.84;101850.30;107504;1251;108285;-64
2024/02/15 01:42:37;;;;;;;;;;;;;;;3.60;72.76;101851.27;107466;1254;99105;-63
2024/02/15 01:45:06;;;;;;;;;;;;;;;3.61;72.69;101844.66;107631;1254;99194;-64
2024/02/15 01:47:35;;;;;;;;;;;;;;;3.63;72.64;101844.38;107658;1254;112747;-65
2024/02/15 01:50:03;;;;;;;;;;;;;;;3.64;72.49;101844.89;107621;1251;107779;-64
2024/02/15 01:52:32;;;;;;;;;;;;;;;3.67;72.56;101840.66;107482;1250;108455;-64
2024/02/15 01:55:07;;;;;;;;;;;;;;;3.70;72.45;101843.23;107521;1254;99118;-64
2024/02/15 01:57:37;;;;;;;;;;;;;;;3.70;72.25;101836.81;107674;1254;99074;-65
2024/02/15 02:00:08;;;;;;;;;;;;;;;3.71;72.23;101842.64;107482;1250;113527;-64
2024/02/15 02:02:37;;;;;;;;;;;;;;;3.65;71.95;101844.64;107656;1254;107477;-66
2024/02/15 02:05:06;;;;;;;;;;;;;;;3.62;72.04;101851.70;107584;1253;108675;-65
2024/02/15 02:07:35;;;;;;;;;;;;;;;3.64;72.35;101849.52;107609;1254;99077;-66
2024/02/15 02:10:04;;;;;;;;;;;;;;;3.66;72.07;101857.59;107610;1253;99179;-64
2024/02/15 02:12:32;;;;;;;;;;;;;;;3.59;71.50;101861.06;107684;1254;113916;-64
2024/02/15 02:15:00;;;;;;;;;;;;;;;3.57;71.76;101861.84;107551;1251;108326;-65
2024/02/15 02:17:29;;;;;;;;;;;;;;;3.63;72.07;101858.77;107553;1254;108535;-63
2024/02/15 02:19:57;;;;;;;;;;;;;;;3.68;72.07;101859.27;107561;1251;99210;-64
2024/02/15 02:22:26;;;;;;;;;;;;;;;3.68;71.67;101857.83;107520;1251;99188;-64
2024/02/15 02:24:58;;;;;;;;;;;;;;;3.70;71.68;101863.45;107505;1251;112795;-65
2024/02/15 02:27:27;;;;;;;;;;;;;;;3.71;71.77;101862.67;107546;1250;108580;-68
2024/02/15 02:29:56;;;;;;;;;;;;;;;3.73;71.39;101872.38;107446;1251;106781;-65
2024/02/15 02:32:26;;;;;;;;;;;;;;;3.73;71.30;101871.30;107465;1251;99213;-66
2024/02/15 02:34:57;;;;;;;;;;;;;;;3.75;71.39;101872.98;107597;1251;99169;-64
2024/02/15 02:37:26;;;;;;;;;;;;;;;3.76;71.32;101870.08;107570;1251;113444;-65
2024/02/15 02:39:54;;;;;;;;;;;;;;;3.80;71.30;101870.67;107476;1251;108708;-64
2024/02/15 02:42:23;;;;;;;;;;;;;;;3.82;71.33;101874.84;107479;1251;107791;-63
2024/02/15 02:44:51;;;;;;;;;;;;;;;3.84;71.28;101877.78;107511;1251;99244;-64
2024/02/15 02:47:19;;;;;;;;;;;;;;;3.85;71.37;101879.52;107504;1251;99363;-63
2024/02/15 02:49:48;;;;;;;;;;;;;;;3.87;71.20;101884.56;107469;1250;113283;-63
2024/02/15 02:52:16;;;;;;;;;;;;;;;3.88;70.99;101887.52;107558;1254;107245;-64
2024/02/15 02:54:44;;;;;;;;;;;;;;;3.88;71.16;101890.69;107583;1253;107853;-63
2024/02/15 02:57:12;;;;;;;;;;;;;;;3.90;70.80;101890.83;107624;1251;99194;-65
2024/02/15 02:59:41;;;;;;;;;;;;;;;3.89;70.71;101894.04;107558;1250;99161;-65
2024/02/15 03:02:09;;;;;;;;;;;;;;;3.90;70.56;101891.86;107473;1253;113345;-63
2024/02/15 03:04:38;;;;;;;;;;;;;;;3.90;70.79;101893.13;107613;1254;107839;-64
2024/02/15 03:07:07;;;;;;;;;;;;;;;3.88;70.53;101896.60;107590;1253;108239;-66
2024/02/15 03:09:37;;;;;;;;;;;;;;;3.85;70.55;101898.46;107511;1251;99185;-65
2024/02/15 03:12:06;;;;;;;;;;;;;;;3.83;70.51;101903.87;107493;1251;99182;-64
2024/02/15 03:14:35;;;;;;;;;;;;;;;3.79;70.47;101902.48;107524;1251;112567;-64
2024/02/15 03:17:03;;;;;;;;;;;;;;;3.73;70.57;101908.93;107517;1251;108581;-64
2024/02/15 03:19:32;;;;;;;;;;;;;;;3.72;70.69;101911.61;107469;1251;108190;-64
2024/02/15 03:22:00;;;;;;;;;;;;;;;3.70;70.55;101912.23;107540;1251;99211;-64
2024/02/15 03:24:28;;;;;;;;;;;;;;;3.67;70.68;101911.64;107494;1254;99289;-64
2024/02/15 03:26:56;;;;;;;;;;;;;;;3.67;70.62;101908.63;107545;1253;113366;-64
2024/02/15 03:29:25;;;;;;;;;;;;;;;3.69;70.82;101905.02;107593;1251;107789;-64
2024/02/15 03:31:54;;;;;;;;;;;;;;;3.68;70.79;101907.70;107546;1254;108031;-64
2024/02/15 03:34:24;;;;;;;;;;;;;;;3.65;70.85;101908.19;107617;1250;99182;-63
2024/02/15 03:36:54;;;;;;;;;;;;;;;3.61;70.92;101906.38;107511;1251;99256;-64
2024/02/15 03:39:23;;;;;;;;;;;;;;;3.59;70.90;101910.53;107592;1250;112840;-63
2024/02/15 03:41:53;;;;;;;;;;;;;;;3.59;70.83;101907.55;107561;1254;108585;-64
2024/02/15 03:44:25;;;;;;;;;;;;;;;3.58;70.97;101910.23;107660;1254;107634;-64
2024/02/15 03:46:54;;;;;;;;;;;;;;;3.53;70.61;101913.08;107581;1251;99176;-64
2024/02/15 03:49:26;;;;;;;;;;;;;;;3.50;70.85;101912.88;107506;1251;99182;-65
2024/02/15 03:51:55;;;;;;;;;;;;;;;3.52;71.02;101916.17;107517;1250;112502;-65
2024/02/15 03:54:23;;;;;;;;;;;;;;;3.50;70.83;101914.44;107529;1250;108018;-64
2024/02/15 03:56:52;;;;;;;;;;;;;;;3.46;70.65;101915.35;107553;1251;108705;-63
2024/02/15 03:59:26;;;;;;;;;;;;;;;3.43;70.90;101917.73;107495;1251;99180;-63
2024/02/15 04:01:55;;;;;;;;;;;;;;;3.37;70.67;101925.27;107565;1251;99178;-64
2024/02/15 04:04:24;;;;;;;;;;;;;;;3.32;70.86;101926.35;107517;1251;113118;-63
2024/02/15 04:06:52;;;;;;;;;;;;;;;3.31;70.84;101929.59;107534;1251;108121;-64
2024/02/15 04:09:21;;;;;;;;;;;;;;;3.32;71.08;101929.58;107555;1250;107827;-64
2024/02/15 04:11:52;;;;;;;;;;;;;;;3.31;71.12;101929.39;107570;1251;99249;-63
2024/02/15 04:14:22;;;;;;;;;;;;;;;3.33;71.11;101931.47;107611;1251;99742;-63
2024/02/15 04:16:50;;;;;;;;;;;;;;;3.32;71.04;101934.89;107534;1253;112767;-64
2024/02/15 04:19:19;;;;;;;;;;;;;;;3.29;70.97;101931.59;107595;1254;108378;-63
2024/02/15 04:21:48;;;;;;;;;;;;;;;3.28;71.22;101934.81;107634;1252;108459;-64
2024/02/15 04:24:17;;;;;;;;;;;;;;;3.29;71.17;101933.18;107563;1252;99273;-64
2024/02/15 04:26:47;;;;;;;;;;;;;;;3.26;71.07;101938.44;107586;1251;99176;-65
2024/02/15 04:29:16;;;;;;;;;;;;;;;3.22;71.21;101941.44;107553;1251;113218;-64
2024/02/15 04:31:44;;;;;;;;;;;;;;;3.21;71.30;101943.99;107624;1251;107956;-64
2024/02/15 04:34:13;;;;;;;;;;;;;;;3.25;71.36;101942.08;107543;1250;109075;-63
2024/02/15 04:36:42;;;;;;;;;;;;;;;3.27;71.57;101947.63;107561;1251;99249;-63
2024/02/15 04:39:15;;;;;;;;;;;;;;;3.22;71.49;101951.73;107579;1251;99150;-64
2024/02/15 04:41:46;;;;;;;;;;;;;;;3.20;71.55;101951.09;107616;1250;114604;-63
2024/02/15 04:44:16;;;;;;;;;;;;;;;3.21;71.96;101954.80;107581;1250;108289;-64
2024/02/15 04:46:45;;;;;;;;;;;;;;;3.20;71.78;101949.34;107617;1251;108163;-64
2024/02/15 04:49:14;;;;;;;;;;;;;;;3.19;71.85;101950.63;107509;1251;99197;-64
2024/02/15 04:51:43;;;;;;;;;;;;;;;3.19;72.38;101954.14;107596;1251;99307;-65
2024/02/15 04:54:13;;;;;;;;;;;;;;;3.18;72.47;101951.20;107549;1251;112814;-65
2024/02/15 04:56:41;;;;;;;;;;;;;;;3.17;72.69;101954.95;107585;1251;107844;-62
2024/02/15 04:59:14;;;;;;;;;;;;;;;3.17;72.78;101953.18;107555;1251;107609;-63
2024/02/15 05:01:43;;;;;;;;;;;;;;;3.15;72.69;101956.27;107617;1251;99172;-65
2024/02/15 05:04:12;;;;;;;;;;;;;;;3.11;72.87;101958.17;107551;1251;99059;-64
2024/02/15 05:06:40;;;;;;;;;;;;;;;3.07;72.52;101959.04;107595;1254;113606;-63
2024/02/15 05:09:10;;;;;;;;;;;;;;;3.04;73.06;101960.23;107619;1254;108265;-65
2024/02/15 05:11:46;;;;;;;;;;;;;;;2.99;72.99;101964.45;107578;1254;108260;-63
2024/02/15 05:14:19;;;;;;;;;;;;;;;2.95;73.15;101963.57;107583;1251;99188;-65
2024/02/15 05:16:48;;;;;;;;;;;;;;;2.95;73.22;101970.14;107610;1251;99200;-66
2024/02/15 05:19:17;;;;;;;;;;;;;;;2.93;73.33;101968.61;107523;1251;113508;-65
2024/02/15 05:21:47;;;;;;;;;;;;;;;2.90;73.44;101977.24;107568;1251;107346;-63
2024/02/15 05:24:16;;;;;;;;;;;;;;;2.89;73.25;101978.85;107532;1253;108089;-65
2024/02/15 05:26:48;;;;;;;;;;;;;;;2.89;73.40;101982.39;107607;1251;99215;-65
2024/02/15 05:29:17;;;;;;;;;;;;;;;2.94;73.51;101984.70;107606;1254;99166;-64
2024/02/15 05:31:45;;;;;;;;;;;;;;;2.98;73.41;101991.65;107646;1250;113199;-64
2024/02/15 05:34:13;;;;;;;;;;;;;;;3.01;73.51;101993.84;107596;1251;106886;-65
2024/02/15 05:36:42;;;;;;;;;;;;;;;3.01;73.40;102000.40;107571;1251;108117;-64
2024/02/15 05:39:11;;;;;;;;;;;;;;;3.01;73.35;102002.34;107553;1251;99333;-64
2024/02/15 05:41:40;;;;;;;;;;;;;;;3.03;73.16;102004.55;107658;1251;99176;-64
2024/02/15 05:44:09;;;;;;;;;;;;;;;3.04;73.37;102005.44;107569;1250;113335;-64
2024/02/15 05:46:39;;;;;;;;;;;;;;;3.05;73.39;102007.50;107595;1251;108659;-64
2024/02/15 05:49:15;;;;;;;;;;;;;;;3.06;73.39;102007.63;107592;1251;108813;-64
2024/02/15 05:51:44;;;;;;;;;;;;;;;3.06;73.36;102010.66;107564;1251;99703;-64
2024/02/15 05:54:13;;;;;;;;;;;;;;;3.02;73.33;102013.45;107662;1250;99297;-64
2024/02/15 05:56:42;;;;;;;;;;;;;;;2.98;73.34;102016.63;107634;1254;112805;-63
2024/02/15 05:59:11;;;;;;;;;;;;;;;3.01;73.57;102011.56;107592;1254;108814;-65
2024/02/15 06:01:40;;;;;;;;;;;;;;;3.02;73.49;102012.39;107567;1251;108111;-65
2024/02/15 06:04:09;;;;;;;;;;;;;;;3.03;73.42;102010.06;107529;1251;99806;-64
2024/02/15 06:06:37;;;;;;;;;;;;;;;3.05;73.23;102012.84;107590;1251;99090;-66
2024/02/15 06:09:06;;;;;;;;;;;;;;;3.06;73.33;102014.90;107572;1251;113140;-63
2024/02/15 06:11:37;;;;;;;;;;;;;;;3.05;73.24;102020.63;107610;1251;108055;-63
2024/02/15 06:14:06;;;;;;;;;;;;;;;3.03;73.24;102026.36;107557;1251;107815;-64
2024/02/15 06:16:41;;;;;;;;;;;;;;;3.02;73.39;102026.21;107532;1253;99214;-64
2024/02/15 06:19:09;;;;;;;;;;;;;;;2.97;73.64;102028.36;107472;1254;99307;-64
2024/02/15 06:21:37;;;;;;;;;;;;;;;2.90;73.57;102022.95;107517;1254;111791;-64
2024/02/15 06:24:06;;;;;;;;;;;;;;;2.88;73.83;102024.08;107273;1251;107529;-65
2024/02/15 06:26:34;;;;;;;;;;;;;;;2.87;73.98;102023.40;107510;1251;108338;-63
2024/02/15 06:40:26;;;;;;;;;;;;;;;2.95;74.67;102029.86;107426;1255;107070;-64
2024/02/15 06:42:54;;;;;;;;;;;;;;;3.00;74.62;102030.04;107435;1253;99199;-64
2024/02/15 06:45:22;;;;;;;;;;;;;;;3.05;74.50;102028.61;107480;1250;99083;-64
2024/02/15 06:47:51;;;;;;;;;;;;;;;3.11;74.48;102029.07;107421;1251;113175;-65
2024/02/15 06:50:19;;;;;;;;;;;;;;;3.16;74.36;102028.38;107449;1253;107771;-64
2024/02/15 06:52:49;;;;;;;;;;;;;;;3.23;74.65;102024.04;107425;1256;109298;-65
2024/02/15 06:55:19;;;;;;;;;;;;;;;3.28;74.10;102020.30;107454;1255;99196;-65
2024/02/15 06:57:47;;;;;;;;;;;;;;;3.32;74.14;102019.44;107451;1253;99186;-70
2024/02/15 07:00:18;;;;;;;;;;;;;;;3.38;74.16;102016.21;107460;1254;112735;-64
2024/02/15 07:02:48;;;;;;;;;;;;;;;3.42;73.79;102017.83;107636;1253;107749;-64
2024/02/15 07:05:17;;;;;;;;;;;;;;;3.43;73.61;102014.41;107439;1254;108742;-63
2024/02/15 07:07:45;;;;;;;;;;;;;;;3.44;73.34;102023.42;107524;1254;99246;-65
2024/02/15 07:10:16;;;;;;;;;;;;;;;3.43;73.55;102022.39;107477;1253;99210;-65
2024/02/15 07:12:44;;;;;;;;;;;;;;;3.46;73.45;102022.80;107353;1252;112808;-64
2024/02/15 07:15:13;;;;;;;;;;;;;;;3.40;73.24;102024.09;107405;1254;108673;-64
2024/02/15 07:17:41;;;;;;;;;;;;;;;3.39;73.45;102021.82;107395;1253;107606;-63
2024/02/15 07:20:11;;;;;;;;;;;;;;;3.44;73.15;102022.02;107461;1254;99205;-65
2024/02/15 07:22:39;;;;;;;;;;;;;;;3.37;73.04;102022.61;107478;1255;99195;-65
2024/02/15 07:25:08;;;;;;;;;;;;;;;3.33;73.31;102021.38;107475;1254;114083;-65
2024/02/15 07:27:37;;;;;;;;;;;;;;;3.32;73.50;102018.36;107496;1254;106859;-63
2024/02/15 07:30:08;;;;;;;;;;;;;;;3.31;73.41;102016.65;107386;1254;107569;-64
2024/02/15 07:32:37;;;;;;;;;;;;;;;3.31;73.78;102018.61;107449;1254;99176;-64
2024/02/15 07:35:07;;;;;;;;;;;;;;;3.31;73.80;102022.83;107498;1251;99287;-63
2024/02/15 07:37:36;;;;;;;;;;;;;;;3.32;73.73;102024.23;107558;1251;112711;-64
2024/02/15 07:40:04;;;;;;;;;;;;;;;3.31;73.55;102019.48;107470;1250;107783;-64
2024/02/15 07:42:34;;;;;;;;;;;;;;;3.29;73.70;102025.23;107607;1251;106341;-65
2024/02/15 07:45:06;;;;;;;;;;;;;;;3.30;73.64;102027.34;107575;1251;99258;-65
2024/02/15 07:47:34;;;;;;;;;;;;;;;3.37;73.87;102029.52;107644;1251;99152;-65
2024/02/15 07:50:03;;;;;;;;;;;;;;;3.39;73.68;102028.92;107528;1254;112793;-65
2024/02/15 07:52:33;;;;;;;;;;;;;;;3.42;73.76;102030.23;107532;1254;108340;-64
2024/02/15 07:55:08;;;;;;;;;;;;;;;3.43;73.47;102030.88;107555;1251;108541;-64
2024/02/15 07:57:37;;;;;;;;;;;;;;;3.41;73.41;102031.52;107493;1255;99259;-64
2024/02/15 08:00:10;;;;;;;;;;;;;;;3.37;73.59;102033.98;107513;1253;99543;-64
2024/02/15 08:02:42;;;;;;;;;;;;;;;3.37;73.49;102033.27;107466;1251;113300;-63
2024/02/15 08:05:11;;;;;;;;;;;;;;;3.41;73.61;102029.56;107564;1251;108371;-65
2024/02/15 08:07:44;;;;;;;;;;;;;;;3.43;73.41;102035.88;107478;1251;107835;-67
2024/02/15 08:10:12;;;;;;;;;;;;;;;3.37;73.47;102034.86;107528;1251;99276;-63
2024/02/15 08:12:41;;;;;;;;;;;;;;;3.32;73.69;102029.03;107575;1251;99239;-63
2024/02/15 08:15:13;;;;;;;;;;;;;;;3.37;73.61;102025.82;107504;1256;113388;-66
2024/02/15 08:17:43;;;;;;;;;;;;;;;3.46;73.94;102025.84;107516;1251;108751;-64
2024/02/15 08:20:12;;;;;;;;;;;;;;;3.57;73.99;102024.53;107535;1251;108479;-64
2024/02/15 08:22:41;;;;;;;;;;;;;;;3.70;73.95;102026.48;107561;1253;99175;-66
2024/02/15 08:25:13;;;;;;;;;;;;;;;3.82;73.71;102023.88;107594;1251;99172;-64
2024/02/15 08:27:45;;;;;;;;;;;;;;;3.89;73.13;102022.04;107574;1254;112485;-65
2024/02/15 08:30:14;;;;;;;;;;;;;;;3.94;73.07;102021.80;107617;1251;108469;-65
2024/02/15 08:32:43;;;;;;;;;;;;;;;3.95;72.63;102023.18;107479;1253;107764;-64
2024/02/15 08:35:12;;;;;;;;;;;;;;;3.99;72.60;102023.92;107443;1256;100308;-64
2024/02/15 08:37:42;;;;;;;;;;;;;;;4.04;72.34;102023.01;107483;1251;99202;-63
2024/02/15 08:40:11;;;;;;;;;;;;;;;3.98;71.61;102019.67;107499;1251;112426;-65
2024/02/15 08:42:40;;;;;;;;;;;;;;;4.01;71.90;102023.84;107535;1254;108477;-64
2024/02/15 08:45:09;;;;;;;;;;;;;;;4.03;71.96;102021.80;106798;1250;860532;-65
2024/02/15 08:47:38;;;;;;;;;;;;;;;4.10;72.18;102027.91;107457;1251;99544;-65
2024/02/15 08:50:09;;;;;;;;;;;;;;;4.16;72.02;102025.70;107540;1251;99260;-65
2024/02/15 08:52:38;;;;;;;;;;;;;;;4.22;71.81;102027.42;107561;1251;113262;-65
2024/02/15 08:55:09;;;;;;;;;;;;;;;4.30;72.05;102026.39;107453;1251;107217;-65
2024/02/15 08:57:44;;;;;;;;;;;;;;;4.39;72.03;102029.37;107544;1251;107844;-64
2024/02/15 09:00:13;;;;;;;;;;;;;;;4.47;71.79;102031.33;107492;1254;99294;-65
2024/02/15 09:02:43;;;;;;;;;;;;;;;4.53;71.45;102031.27;107528;1253;99191;-64
2024/02/15 09:05:15;;;;;;;;;;;;;;;4.58;71.03;102033.39;107492;1254;113551;-64
2024/02/15 09:07:44;;;;;;;;;;;;;;;4.62;70.34;102029.84;107451;1254;108333;-64
2024/02/15 09:10:12;;;;;;;;;;;;;;;4.61;69.63;102032.69;107493;1251;107835;-63
2024/02/15 09:12:42;;;;;;;;;;;;;;;4.60;69.77;102037.37;107414;1250;99189;-64
2024/02/15 09:15:10;;;;;;;;;;;;;;;4.60;69.69;102039.16;107469;1251;99253;-64
2024/02/15 09:17:39;;;;;;;;;;;;;;;4.58;69.06;102039.04;107440;1253;113363;-69
2024/02/15 09:20:14;;;;;;;;;;;;;;;4.56;69.15;102046.06;107495;1255;108351;-64
2024/02/15 09:22:52;;;;;;;;;;;;;;;4.59;69.69;102045.05;107492;1251;108005;-64
2024/02/15 09:25:23;;;;;;;;;;;;;;;4.67;69.84;102039.20;107513;1251;99278;-66
2024/02/15 09:27:53;;;;;;;;;;;;;;;4.76;69.21;102031.86;107520;1251;99186;-65
2024/02/15 09:30:24;;;;;;;;;;;;;;;4.75;68.76;102033.17;107476;1255;113568;-65
2024/02/15 09:32:53;;;;;;;;;;;;;;;4.78;69.09;102034.29;107415;1254;108218;-65
2024/02/15 09:35:42;;;;;;;;;;;;;;;4.84;68.68;102029.02;107468;1251;108780;-68
2024/02/15 09:38:10;;;;;;;;;;;;;;;4.84;68.84;102029.91;107453;1251;99192;-65
2024/02/15 09:43:56;;;;;;;;;;;;;;;4.97;68.55;102022.27;107028;1257;113484;-65
2024/02/15 09:46:24;;;;;;;;;;;;;;;4.99;68.52;102022.69;107126;1257;108427;-64
2024/02/15 09:49:13;;;;;;;;;;;;;;;5.06;68.52;102018.98;107390;1251;107040;-65
2024/02/15 09:51:42;;;;;;;;;;;;;;;5.14;68.45;102022.37;107543;1251;99182;-64
2024/02/15 09:54:13;;;;;;;;;;;;;;;5.20;68.39;102019.41;107568;1251;99172;-64
2024/02/15 09:56:41;;;;;;;;;;;;;;;5.31;68.47;102013.41;107492;1251;112170;-65
2024/02/15 09:59:10;;;;;;;;;;;;;;;5.43;68.05;102010.19;107483;1251;108715;-66
2024/02/15 10:01:40;;;;;;;;;;;;;;;5.53;67.59;102008.48;107457;1251;108682;-65
2024/02/15 10:04:18;;;;;;;;;;;;;;;5.64;67.26;102002.27;107470;1255;99041;-66
2024/02/15 10:06:57;;;;;;;;;;;;;;;;;;;;;
2024/02/15 10:09:29;;;;;;;;;;;;;;;5.80;66.23;101997.39;107226;1251;112840;-68
2024/02/15 10:12:12;;;;;;;;;;;;;;;5.84;65.81;101992.95;107162;1257;107634;-64
2024/02/15 10:14:53;;;;;;;;;;;;;;;5.84;66.07;101999.16;107050;1259;109192;-64
2024/02/15 10:17:35;;;;;;;;;;;;;;;;;;;;;
2024/02/15 10:20:04;;;;;;;;;;;;;;;5.87;65.36;101998.50;106827;1255;99198;-63
2024/02/15 10:22:32;;;;;;;;;;;;;;;5.83;65.26;102000.80;107514;1254;111989;-64
2024/02/15 10:25:13;;;;;;;;;;;;;;;5.80;65.42;101997.56;107580;1251;108488;-64
2024/02/15 10:27:42;;;;;;;;;;;;;;;5.83;66.02;101992.98;107593;1251;108603;-65
2024/02/15 10:30:16;;;;;;;;;;;;;;;5.90;66.18;101995.64;107544;1251;99304;-65
2024/02/15 10:32:45;;;;;;;;;;;;;;;5.95;65.56;101995.05;107585;1254;99061;-66
2024/02/15 10:35:22;;;;;;;;;;;;;;;5.94;64.90;102000.11;107632;1254;111929;-64
2024/02/15 10:37:51;;;;;;;;;;;;;;;5.94;65.50;102005.77;107564;1254;108033;-66
2024/02/15 10:40:20;;;;;;;;;;;;;;;5.95;65.19;101999.16;107579;1256;107360;-67
2024/02/15 10:42:51;;;;;;;;;;;;;;;5.90;65.28;102002.61;107603;1255;99202;-64
2024/02/15 10:45:20;;;;;;;;;;;;;;;5.89;65.08;102000.38;107581;1254;99066;-65
2024/02/15 10:47:48;;;;;;;;;;;;;;;5.85;65.16;102000.02;107636;1251;112218;-64
2024/02/15 10:50:17;;;;;;;;;;;;;;;5.81;65.24;102003.42;107548;1251;108162;-65
2024/02/15 10:52:54;;;;;;;;;;;;;;;5.78;65.52;101999.09;107611;1255;107064;-65
2024/02/15 10:55:38;;;;;;;;;;;;;;;5.76;65.51;101998.85;107587;1255;99253;-66
2024/02/15 10:58:07;;;;;;;;;;;;;;;5.75;65.57;102006.33;107643;1251;99080;-64
2024/02/15 11:00:37;;;;;;;;;;;;;;;5.71;65.64;102004.41;107638;1251;112199;-64
2024/02/15 11:03:07;;;;;;;;;;;;;;;5.76;65.87;102000.78;107571;1251;108216;-65
2024/02/15 11:05:37;;;;;;;;;;;;;;;5.83;65.87;102001.00;107599;1250;106593;-64
2024/02/15 11:08:08;;;;;;;;;;;;;;;5.85;65.42;101999.98;107562;1251;99246;-64
2024/02/15 11:10:37;;;;;;;;;;;;;;;5.83;65.46;101999.05;107568;1251;99194;-64
2024/02/15 11:13:06;;;;;;;;;;;;;;;5.81;65.57;102000.89;107577;1251;112977;-64
2024/02/15 11:15:41;;;;;;;;;;;;;;;5.80;65.70;102000.41;107558;1256;108495;-64
2024/02/15 11:18:10;;;;;;;;;;;;;;;5.81;65.88;101993.79;107553;1256;107844;-63
2024/02/15 11:20:41;;;;;;;;;;;;;;;5.84;65.89;101995.24;107487;1251;99204;-64
2024/02/15 11:23:10;;;;;;;;;;;;;;;5.84;65.34;101993.15;107607;1251;99181;-64
2024/02/15 11:25:43;;;;;;;;;;;;;;;5.86;65.55;101994.98;107493;1251;112983;-63
2024/02/15 11:28:20;;;;;;;;;;;;;;;5.90;65.59;101993.34;107565;1251;107779;-65
2024/02/15 11:30:49;;;;;;;;;;;;;;;5.97;65.77;101991.75;107490;1251;107746;-64
2024/02/15 11:33:35;;;;;;;;;;;;;;;6.06;65.66;101995.79;107550;1251;99195;-64
2024/02/15 11:36:05;;;;;;;;;;;;;;;6.17;65.61;101992.06;107643;1251;99185;-63
2024/02/15 11:38:37;;;;;;;;;;;;;;;6.24;65.49;101992.23;107636;1251;113120;-64
2024/02/15 11:41:06;;;;;;;;;;;;;;;6.29;65.24;101988.23;107651;1251;108355;-66
2024/02/15 11:43:54;;;;;;;;;;;;;;;6.31;64.79;101987.79;107484;1251;108505;-65
2024/02/15 11:46:25;;;;;;;;;;;;;;;6.34;64.51;101989.79;107544;1253;99237;-63
2024/02/15 11:48:54;;;;;;;;;;;;;;;6.33;64.36;101986.79;107657;1254;99178;-64
2024/02/15 11:51:26;;;;;;;;;;;;;;;6.32;64.47;101987.77;107592;1251;113259;-64
2024/02/15 11:54:07;;;;;;;;;;;;;;;6.34;64.86;101988.86;107571;1251;108321;-63
2024/02/15 11:57:07;;;;;;;;;;;;;;;6.42;64.64;101986.66;107610;1251;108811;-66
2024/02/15 12:00:12;;;;;;;;;;;;;;;6.47;64.71;101980.91;107622;1254;99255;-65
2024/02/15 12:19:23;;;;;;;;;;;;;;;6.57;63.42;101976.85;107571;1254;113286;-65
2024/02/15 12:21:53;;;;;;;;;;;;;;;6.46;64.02;101975.25;107596;1251;107346;-64
2024/02/15 12:24:26;;;;;;;;;;;;;;;6.40;64.24;101975.58;107599;1251;107765;-64
2024/02/15 12:27:03;;;;;;;;;;;;;;;6.35;64.37;101975.84;107627;1250;99188;-65
2024/02/15 12:29:32;;;;;;;;;;;;;;;6.29;64.57;101974.15;107527;1253;99179;-63
2024/02/15 12:32:01;;;;;;;;;;;;;;;6.29;64.83;101976.31;107567;1254;113574;-66
2024/02/15 12:34:29;;;;;;;;;;;;;;;6.29;64.70;101980.77;107534;1254;107966;-67
2024/02/15 12:37:08;;;;;;;;;;;;;;;6.27;64.77;101984.77;107544;1251;108517;-65
2024/02/15 12:39:37;;;;;;;;;;;;;;;6.23;64.95;101986.02;107579;1251;99225;-64
2024/02/15 12:42:07;;;;;;;;;;;;;;;6.23;64.87;101987.45;107506;1251;99052;-64
2024/02/15 12:44:35;;;;;;;;;;;;;;;6.22;65.10;101983.45;107617;1251;112761;-65
2024/02/15 12:47:05;;;;;;;;;;;;;;;6.20;65.26;101984.42;107622;1252;107105;-65
2024/02/15 12:49:34;;;;;;;;;;;;;;;6.18;65.24;101990.21;107557;1251;107677;-65
2024/02/15 12:52:22;;;;;;;;;;;;;;;6.14;65.39;101994.67;107547;1256;99184;-65
2024/02/15 12:55:07;;;;;;;;;;;;;;;6.09;65.33;101993.13;107528;1251;99301;-65
2024/02/15 12:57:35;;;;;;;;;;;;;;;6.09;65.63;101987.11;107612;1251;113593;-65
2024/02/15 13:00:10;;;;;;;;;;;;;;;6.11;65.72;101982.34;107605;1254;108359;-66
2024/02/15 13:02:39;;;;;;;;;;;;;;;6.11;65.73;101984.14;107500;1251;107512;-65
2024/02/15 13:05:11;;;;;;;;;;;;;;;6.13;65.81;101986.56;107608;1254;99185;-65
2024/02/15 13:07:40;;;;;;;;;;;;;;;6.13;65.80;101983.36;107498;1254;99171;-64
2024/02/15 13:10:08;;;;;;;;;;;;;;;6.10;65.68;101980.98;107527;1251;112743;-65
2024/02/15 13:12:37;;;;;;;;;;;;;;;6.10;65.85;101980.64;107608;1251;107793;-64
2024/02/15 13:15:07;;;;;;;;;;;;;;;6.07;65.99;101984.35;107604;1251;107566;-65
2024/02/15 13:17:35;;;;;;;;;;;;;;;6.09;66.18;101986.75;107641;1251;99186;-65
2024/02/15 13:20:11;;;;;;;;;;;;;;;6.04;65.94;101986.11;107522;1254;99176;-65